Palo Alto, CA

3:15 PM PDT on August 30, 2014 (GMT -0700)
Palo Alto Of Santa Clara County | Change Station
CLOSE
Current Station
Airport
Location: Palo Alto,
Elevation: 7 ft
Nearby Weather Stations

Elev 7 ft 37.46 °N, 122.12 °W | Updated 28 minutes ago

Partly Cloudy
Partly Cloudy
81 °F
Feels Like 82 °F
N
23
Wind Variable Wind from North

Today
High -- | Low -- °F
--% Chance of Precip.
Yesterday
High -- | Low -- °F
Precip. -- in
6:37 AM 7:40 PM
Waxing Crescent, 25% visible
Pressure 29.87 in
Visibility 30.0 miles
Clouds Few 15000 ft
Heat Index 82 °F
Dew Point 63 °F
Humidity 54%
Rainfall 0.00 in
Snow Depth Not available.
UV 8 out of 12
Pollen 7.70 out of 12
Ozone Good
PM2.5 Good
Flu Activity Not available.
METAR KPAO 302147Z 35020KT 30SM FEW150 27/17 A2987

More Conditions Fewer Conditions

Pressure 29.87 in
Visibility 30.0 miles
Clouds Few 15000 ft
Heat Index 82 °F
Dew Point 63 °F
Humidity 54%
Rainfall 0.00 in
Snow Depth Not available.
UV 8 out of 12
Pollen 7.70 out of 12
Ozone Good
PM2.5 Good
Flu Activity Not available.
METAR KPAO 302147Z 35020KT 30SM FEW150 27/17 A2987

More Conditions Fewer Conditions

10-Day Weather Forecast

Almanac

Astronomy

Aug. 30, 2014 Rise Set
Actual Time 6:37 AM PDT 7:40 PM PDT
Civil Twilight 6:10 AM PDT 8:06 PM PDT
Nautical Twilight 5:38 AM PDT 8:38 PM PDT
Astronomical Twilight 5:05 AM PDT 9:11 PM PDT
Moon 11:23 AM PDT 10:24 PM PDT
Length of Visible Light 13h 56m
Length of Day
13h 02m
Tomorrow will be 2m 18s shorter.
Waxing Crescent, 25% of the Moon is Illuminated
Today
Waxing Crescent
Sep 2
First Quarter
Sep 8
Full
Sep 15
Last Quarter
Sep 24
New

Today's Extremes

State Highs State Lows

Community

WunderPhotos

Upload Photos

1,748,657 photos uploaded!

WunderBlogs® & News

Nearby

Air Quality

  Air Quality AQ Index Pollutant
Yesterday Good
PM2.5
Yesterday Good
OZONE
Current Good
PM2.5
Current Good
OZONE
Saturday Good
PM2.5
Sunday Good
OZONE
Monday Good
OZONE
Tuesday Good
PM2.5
Wednesday Good
OZONE

Snow Depth

Station Depth Elevation
Echo Peak 0 in 7800 ft
Fallen Leaf 0 in 6300 ft
Rubicon #2 0 in 7500 ft
Leavitt Meadows 1 in 7200 ft
CSS Lab 2 in 6900 ft

Earthquake Activity

City Distance Mag. Time & Date
Ridgemark, California 69 miles 3.4 4:32 PM PDT
2014-08-29
The Geysers, California 101 miles 2.7 2:53 PM PDT
2014-08-29
Ridgemark, California 69 miles 3.0 2:44 PM PDT
2014-08-29
Minimum magnitude displayed is 2.5.

Coastal Water Temperatures

Place Temperature
No Stations Reporting

Nearby Weather Stations